sensor_id;sensor_type;location;lat;lon;timestamp;pressure;altitude;pressure_sealevel;temperature;humidity
75089;BME280;63673;49.928;8.150;2024-02-23T00:00:20;967.77;;;6.45;100
75089;BME280;63673;49.928;8.150;2024-02-23T00:01:23;967.84;;;6.43;100
75089;BME280;63673;49.928;8.150;2024-02-23T00:02:28;967.8;;;6.42;100
75089;BME280;63673;49.928;8.150;2024-02-23T00:03:29;967.85;;;6.4;100
75089;BME280;63673;49.928;8.150;2024-02-23T00:04:32;967.86;;;6.39;100
75089;BME280;63673;49.928;8.150;2024-02-23T00:05:40;967.83;;;6.37;100
75089;BME280;63673;49.928;8.150;2024-02-23T00:06:41;967.93;;;6.33;100
75089;BME280;63673;49.928;8.150;2024-02-23T00:07:44;967.89;;;6.32;100
75089;BME280;63673;49.928;8.150;2024-02-23T00:08:48;967.87;;;6.31;100
75089;BME280;63673;49.928;8.150;2024-02-23T00:09:51;967.96;;;6.3;100
75089;BME280;63673;49.928;8.150;2024-02-23T00:10:54;967.84;;;6.27;100
75089;BME280;63673;49.928;8.150;2024-02-23T00:11:54;967.86;;;6.25;100
75089;BME280;63673;49.928;8.150;2024-02-23T00:13:06;967.96;;;6.24;100
75089;BME280;63673;49.928;8.150;2024-02-23T00:14:08;967.93;;;6.2;100
75089;BME280;63673;49.928;8.150;2024-02-23T00:15:10;968;;;6.18;100
75089;BME280;63673;49.928;8.150;2024-02-23T00:16:17;967.96;;;6.18;100
75089;BME280;63673;49.928;8.150;2024-02-23T00:17:18;967.97;;;6.15;100
75089;BME280;63673;49.928;8.150;2024-02-23T00:18:19;968.09;;;6.13;100
75089;BME280;63673;49.928;8.150;2024-02-23T00:19:22;968.13;;;6.11;100
75089;BME280;63673;49.928;8.150;2024-02-23T00:20:25;968.1;;;6.1;100
75089;BME280;63673;49.928;8.150;2024-02-23T00:21:25;968.19;;;6.08;100
75089;BME280;63673;49.928;8.150;2024-02-23T00:22:27;968.29;;;6.06;100
75089;BME280;63673;49.928;8.150;2024-02-23T00:23:29;968.26;;;6.05;100
75089;BME280;63673;49.928;8.150;2024-02-23T00:24:30;968.27;;;6.06;100
75089;BME280;63673;49.928;8.150;2024-02-23T00:25:32;968.18;;;6.04;100
75089;BME280;63673;49.928;8.150;2024-02-23T00:26:34;968.32;;;6.04;100
75089;BME280;63673;49.928;8.150;2024-02-23T00:27:36;968.46;;;6.01;100
75089;BME280;63673;49.928;8.150;2024-02-23T00:28:37;968.45;;;6.03;100
75089;BME280;63673;49.928;8.150;2024-02-23T00:29:39;968.41;;;6.02;100
75089;BME280;63673;49.928;8.150;2024-02-23T00:30:41;968.59;;;6.02;100
75089;BME280;63673;49.928;8.150;2024-02-23T00:31:43;968.52;;;6.02;100
75089;BME280;63673;49.928;8.150;2024-02-23T00:32:53;968.5;;;6.03;100
75089;BME280;63673;49.928;8.150;2024-02-23T00:33:56;968.49;;;6.01;100
75089;BME280;63673;49.928;8.150;2024-02-23T00:34:58;968.5;;;5.99;100
75089;BME280;63673;49.928;8.150;2024-02-23T00:36:00;968.46;;;5.98;100
75089;BME280;63673;49.928;8.150;2024-02-23T00:37:02;968.52;;;5.97;100
75089;BME280;63673;49.928;8.150;2024-02-23T00:38:03;968.54;;;5.96;100
75089;BME280;63673;49.928;8.150;2024-02-23T00:39:11;968.58;;;5.94;100
75089;BME280;63673;49.928;8.150;2024-02-23T00:40:12;968.62;;;5.89;100
75089;BME280;63673;49.928;8.150;2024-02-23T00:41:13;968.6;;;5.89;100
75089;BME280;63673;49.928;8.150;2024-02-23T00:42:15;968.55;;;5.88;100
75089;BME280;63673;49.928;8.150;2024-02-23T00:43:19;968.61;;;5.86;100
75089;BME280;63673;49.928;8.150;2024-02-23T00:44:25;968.62;;;5.84;100
75089;BME280;63673;49.928;8.150;2024-02-23T00:45:26;968.62;;;5.82;100
75089;BME280;63673;49.928;8.150;2024-02-23T00:46:32;968.58;;;5.79;100
75089;BME280;63673;49.928;8.150;2024-02-23T00:47:33;968.66;;;5.77;100
75089;BME280;63673;49.928;8.150;2024-02-23T00:48:36;968.71;;;5.75;100
75089;BME280;63673;49.928;8.150;2024-02-23T00:49:38;968.74;;;5.73;100
75089;BME280;63673;49.928;8.150;2024-02-23T00:50:43;968.66;;;5.72;100
75089;BME280;63673;49.928;8.150;2024-02-23T00:51:46;968.68;;;5.72;100
75089;BME280;63673;49.928;8.150;2024-02-23T00:52:49;968.63;;;5.72;100
75089;BME280;63673;49.928;8.150;2024-02-23T00:53:56;968.75;;;5.73;100
75089;BME280;63673;49.928;8.150;2024-02-23T00:54:57;968.74;;;5.75;100
75089;BME280;63673;49.928;8.150;2024-02-23T00:55:59;968.75;;;5.73;100
75089;BME280;63673;49.928;8.150;2024-02-23T00:57:04;968.81;;;5.71;100
75089;BME280;63673;49.928;8.150;2024-02-23T00:58:07;968.91;;;5.7;100
75089;BME280;63673;49.928;8.150;2024-02-23T00:59:09;968.92;;;5.69;100
75089;BME280;63673;49.928;8.150;2024-02-23T01:00:11;969.1;;;5.69;100
75089;BME280;63673;49.928;8.150;2024-02-23T01:01:12;968.91;;;5.71;100
75089;BME280;63673;49.928;8.150;2024-02-23T01:02:14;968.92;;;5.69;100
75089;BME280;63673;49.928;8.150;2024-02-23T01:02:55;968.92;;;5.69;100
75089;BME280;63673;49.928;8.150;2024-02-23T01:03:57;968.97;;;5.7;100
75089;BME280;63673;49.928;8.150;2024-02-23T01:04:58;968.89;;;5.69;100
75089;BME280;63673;49.928;8.150;2024-02-23T01:06:00;969.01;;;5.68;100
75089;BME280;63673;49.928;8.150;2024-02-23T01:07:04;968.9;;;5.68;100
75089;BME280;63673;49.928;8.150;2024-02-23T01:08:07;969;;;5.66;100
75089;BME280;63673;49.928;8.150;2024-02-23T01:09:11;969.05;;;5.62;100
75089;BME280;63673;49.928;8.150;2024-02-23T01:10:14;968.99;;;5.6;100
75089;BME280;63673;49.928;8.150;2024-02-23T01:11:19;968.97;;;5.61;100
75089;BME280;63673;49.928;8.150;2024-02-23T01:12:21;968.97;;;5.59;100
75089;BME280;63673;49.928;8.150;2024-02-23T01:13:27;969.03;;;5.58;100
75089;BME280;63673;49.928;8.150;2024-02-23T01:14:35;969.07;;;5.59;100
75089;BME280;63673;49.928;8.150;2024-02-23T01:15:36;969.07;;;5.57;100
75089;BME280;63673;49.928;8.150;2024-02-23T01:16:38;969.06;;;5.57;100
75089;BME280;63673;49.928;8.150;2024-02-23T01:17:39;969.04;;;5.57;100
75089;BME280;63673;49.928;8.150;2024-02-23T01:18:42;969.07;;;5.58;100
75089;BME280;63673;49.928;8.150;2024-02-23T01:19:44;969.08;;;5.56;100
75089;BME280;63673;49.928;8.150;2024-02-23T01:20:50;969.14;;;5.56;100
75089;BME280;63673;49.928;8.150;2024-02-23T01:21:52;969.22;;;5.55;100
75089;BME280;63673;49.928;8.150;2024-02-23T01:22:54;969.14;;;5.54;100
75089;BME280;63673;49.928;8.150;2024-02-23T01:24:00;969.19;;;5.5;100
75089;BME280;63673;49.928;8.150;2024-02-23T01:25:02;969.22;;;5.47;100
75089;BME280;63673;49.928;8.150;2024-02-23T01:26:05;969.13;;;5.46;100
75089;BME280;63673;49.928;8.150;2024-02-23T01:27:06;969.2;;;5.44;100
75089;BME280;63673;49.928;8.150;2024-02-23T01:28:13;969.19;;;5.39;100
75089;BME280;63673;49.928;8.150;2024-02-23T01:29:14;969.22;;;5.37;100
75089;BME280;63673;49.928;8.150;2024-02-23T01:30:20;969.2;;;5.34;100
75089;BME280;63673;49.928;8.150;2024-02-23T01:31:23;969.3;;;5.31;100
75089;BME280;63673;49.928;8.150;2024-02-23T01:32:27;969.33;;;5.3;100
75089;BME280;63673;49.928;8.150;2024-02-23T01:33:32;969.31;;;5.26;100
75089;BME280;63673;49.928;8.150;2024-02-23T01:34:32;969.32;;;5.22;100
75089;BME280;63673;49.928;8.150;2024-02-23T01:35:36;969.35;;;5.22;100
75089;BME280;63673;49.928;8.150;2024-02-23T01:36:38;969.37;;;5.2;100
75089;BME280;63673;49.928;8.150;2024-02-23T01:37:43;969.4;;;5.16;100
75089;BME280;63673;49.928;8.150;2024-02-23T01:38:47;969.32;;;5.13;100
75089;BME280;63673;49.928;8.150;2024-02-23T01:39:50;969.41;;;5.11;100
75089;BME280;63673;49.928;8.150;2024-02-23T01:40:54;969.45;;;5.06;100
75089;BME280;63673;49.928;8.150;2024-02-23T01:41:56;969.51;;;5.03;100
75089;BME280;63673;49.928;8.150;2024-02-23T01:43:01;969.5;;;5.01;100
75089;BME280;63673;49.928;8.150;2024-02-23T01:43:59;969.45;;;5;100
75089;BME280;63673;49.928;8.150;2024-02-23T01:45:01;969.52;;;4.97;100
75089;BME280;63673;49.928;8.150;2024-02-23T01:46:03;969.51;;;4.95;100
75089;BME280;63673;49.928;8.150;2024-02-23T01:47:04;969.54;;;4.91;100
75089;BME280;63673;49.928;8.150;2024-02-23T01:48:06;969.49;;;4.9;100
75089;BME280;63673;49.928;8.150;2024-02-23T01:49:08;969.62;;;4.88;100
75089;BME280;63673;49.928;8.150;2024-02-23T01:50:09;969.59;;;4.85;100
75089;BME280;63673;49.928;8.150;2024-02-23T01:51:11;969.73;;;4.83;100
75089;BME280;63673;49.928;8.150;2024-02-23T01:52:13;969.68;;;4.83;100
75089;BME280;63673;49.928;8.150;2024-02-23T01:53:15;969.7;;;4.81;100
75089;BME280;63673;49.928;8.150;2024-02-23T01:54:18;969.73;;;4.78;100
75089;BME280;63673;49.928;8.150;2024-02-23T01:55:20;969.69;;;4.76;100
75089;BME280;63673;49.928;8.150;2024-02-23T01:56:24;969.67;;;4.73;100
75089;BME280;63673;49.928;8.150;2024-02-23T01:57:28;969.69;;;4.71;100
75089;BME280;63673;49.928;8.150;2024-02-23T01:58:29;969.73;;;4.68;100
75089;BME280;63673;49.928;8.150;2024-02-23T01:59:31;969.76;;;4.64;100
75089;BME280;63673;49.928;8.150;2024-02-23T02:00:32;969.76;;;4.59;100
75089;BME280;63673;49.928;8.150;2024-02-23T02:01:34;969.78;;;4.56;100
75089;BME280;63673;49.928;8.150;2024-02-23T02:02:35;969.77;;;4.54;100
75089;BME280;63673;49.928;8.150;2024-02-23T02:03:37;969.7;;;4.52;100
75089;BME280;63673;49.928;8.150;2024-02-23T02:04:39;969.76;;;4.5;100
75089;BME280;63673;49.928;8.150;2024-02-23T02:05:41;969.79;;;4.48;100
75089;BME280;63673;49.928;8.150;2024-02-23T02:06:42;969.84;;;4.47;100
75089;BME280;63673;49.928;8.150;2024-02-23T02:07:44;969.83;;;4.47;100
75089;BME280;63673;49.928;8.150;2024-02-23T02:08:45;969.83;;;4.46;100
75089;BME280;63673;49.928;8.150;2024-02-23T02:09:47;969.86;;;4.44;100
75089;BME280;63673;49.928;8.150;2024-02-23T02:10:49;969.92;;;4.42;100
75089;BME280;63673;49.928;8.150;2024-02-23T02:11:51;969.91;;;4.4;100
75089;BME280;63673;49.928;8.150;2024-02-23T02:12:53;969.86;;;4.39;100
75089;BME280;63673;49.928;8.150;2024-02-23T02:13:24;969.86;;;4.39;100
75089;BME280;63673;49.928;8.150;2024-02-23T02:13:54;969.98;;;4.37;100
75089;BME280;63673;49.928;8.150;2024-02-23T02:14:25;969.98;;;4.37;100
75089;BME280;63673;49.928;8.150;2024-02-23T02:14:56;969.93;;;4.36;100
75089;BME280;63673;49.928;8.150;2024-02-23T02:15:26;969.93;;;4.36;100
75089;BME280;63673;49.928;8.150;2024-02-23T02:15:58;969.92;;;4.36;100
75089;BME280;63673;49.928;8.150;2024-02-23T02:17:00;969.95;;;4.34;100
75089;BME280;63673;49.928;8.150;2024-02-23T02:17:32;969.95;;;4.34;100
75089;BME280;63673;49.928;8.150;2024-02-23T02:18:34;969.93;;;4.32;100
75089;BME280;63673;49.928;8.150;2024-02-23T02:19:34;969.75;;;4.3;100
75089;BME280;63673;49.928;8.150;2024-02-23T02:20:05;969.93;;;4.29;100
75089;BME280;63673;49.928;8.150;2024-02-23T02:20:36;969.93;;;4.29;100
75089;BME280;63673;49.928;8.150;2024-02-23T02:21:07;970;;;4.27;100
75089;BME280;63673;49.928;8.150;2024-02-23T02:21:37;970;;;4.27;100
75089;BME280;63673;49.928;8.150;2024-02-23T02:22:08;969.99;;;4.24;100
75089;BME280;63673;49.928;8.150;2024-02-23T02:22:41;969.99;;;4.24;100
75089;BME280;63673;49.928;8.150;2024-02-23T02:23:46;969.98;;;4.21;100
75089;BME280;63673;49.928;8.150;2024-02-23T02:24:48;969.96;;;4.19;100
75089;BME280;63673;49.928;8.150;2024-02-23T02:25:53;969.98;;;4.17;100
75089;BME280;63673;49.928;8.150;2024-02-23T02:26:20;969.98;;;4.14;100
75089;BME280;63673;49.928;8.150;2024-02-23T02:26:53;969.98;;;4.14;100
75089;BME280;63673;49.928;8.150;2024-02-23T02:27:24;969.99;;;4.13;100
75089;BME280;63673;49.928;8.150;2024-02-23T02:28:25;970.01;;;4.12;100
75089;BME280;63673;49.928;8.150;2024-02-23T02:29:36;970.02;;;4.11;100
75089;BME280;63673;49.928;8.150;2024-02-23T02:30:38;969.97;;;4.1;100
75089;BME280;63673;49.928;8.150;2024-02-23T02:31:38;969.98;;;4.08;100
75089;BME280;63673;49.928;8.150;2024-02-23T02:32:41;969.93;;;4.06;100
75089;BME280;63673;49.928;8.150;2024-02-23T02:33:43;969.96;;;4.05;100
75089;BME280;63673;49.928;8.150;2024-02-23T02:34:45;969.99;;;4.04;100
75089;BME280;63673;49.928;8.150;2024-02-23T02:35:46;969.97;;;4.02;100
75089;BME280;63673;49.928;8.150;2024-02-23T02:36:48;969.97;;;4.02;100
75089;BME280;63673;49.928;8.150;2024-02-23T02:37:50;969.98;;;3.99;100
75089;BME280;63673;49.928;8.150;2024-02-23T02:38:51;970.01;;;3.98;100
75089;BME280;63673;49.928;8.150;2024-02-23T02:39:53;970.05;;;3.96;100
75089;BME280;63673;49.928;8.150;2024-02-23T02:40:55;970.05;;;3.95;100
75089;BME280;63673;49.928;8.150;2024-02-23T02:41:59;970.09;;;3.93;100
75089;BME280;63673;49.928;8.150;2024-02-23T02:43:04;970.11;;;3.92;100
75089;BME280;63673;49.928;8.150;2024-02-23T02:44:05;970.04;;;3.91;100
75089;BME280;63673;49.928;8.150;2024-02-23T02:45:08;970.09;;;3.93;100
75089;BME280;63673;49.928;8.150;2024-02-23T02:46:13;970.11;;;3.91;100
75089;BME280;63673;49.928;8.150;2024-02-23T02:47:16;970.17;;;3.91;100
75089;BME280;63673;49.928;8.150;2024-02-23T02:48:22;970.09;;;3.91;100
75089;BME280;63673;49.928;8.150;2024-02-23T02:49:23;970.18;;;3.9;100
75089;BME280;63673;49.928;8.150;2024-02-23T02:50:26;970.2;;;3.89;100
75089;BME280;63673;49.928;8.150;2024-02-23T02:51:29;970.16;;;3.89;100
75089;BME280;63673;49.928;8.150;2024-02-23T02:52:30;970.21;;;3.87;100
75089;BME280;63673;49.928;8.150;2024-02-23T02:53:31;970.2;;;3.89;100
75089;BME280;63673;49.928;8.150;2024-02-23T02:54:33;970.26;;;3.88;100
75089;BME280;63673;49.928;8.150;2024-02-23T02:55:35;970.16;;;3.87;100
75089;BME280;63673;49.928;8.150;2024-02-23T02:56:36;970.26;;;3.85;100
75089;BME280;63673;49.928;8.150;2024-02-23T02:57:38;970.29;;;3.84;100
75089;BME280;63673;49.928;8.150;2024-02-23T02:58:40;970.35;;;3.84;100
75089;BME280;63673;49.928;8.150;2024-02-23T02:59:41;970.37;;;3.85;100
75089;BME280;63673;49.928;8.150;2024-02-23T03:00:42;970.45;;;3.85;100
75089;BME280;63673;49.928;8.150;2024-02-23T03:01:45;970.4;;;3.87;100
75089;BME280;63673;49.928;8.150;2024-02-23T03:02:47;970.41;;;3.88;100
75089;BME280;63673;49.928;8.150;2024-02-23T03:03:48;970.5;;;3.89;100
75089;BME280;63673;49.928;8.150;2024-02-23T03:04:56;970.51;;;3.9;100
75089;BME280;63673;49.928;8.150;2024-02-23T03:05:57;970.47;;;3.9;100
75089;BME280;63673;49.928;8.150;2024-02-23T03:07:03;970.49;;;3.89;100
75089;BME280;63673;49.928;8.150;2024-02-23T03:08:06;970.48;;;3.88;100
75089;BME280;63673;49.928;8.150;2024-02-23T03:09:09;970.48;;;3.87;100
75089;BME280;63673;49.928;8.150;2024-02-23T03:10:10;970.52;;;3.85;100
75089;BME280;63673;49.928;8.150;2024-02-23T03:11:11;970.43;;;3.82;100
75089;BME280;63673;49.928;8.150;2024-02-23T03:12:17;970.54;;;3.81;100
75089;BME280;63673;49.928;8.150;2024-02-23T03:13:21;970.52;;;3.79;100
75089;BME280;63673;49.928;8.150;2024-02-23T03:14:25;970.52;;;3.77;100
75089;BME280;63673;49.928;8.150;2024-02-23T03:15:28;970.53;;;3.74;100
75089;BME280;63673;49.928;8.150;2024-02-23T03:16:34;970.54;;;3.73;100
75089;BME280;63673;49.928;8.150;2024-02-23T03:17:37;970.56;;;3.7;100
75089;BME280;63673;49.928;8.150;2024-02-23T03:18:38;970.6;;;3.68;100
75089;BME280;63673;49.928;8.150;2024-02-23T03:19:44;970.54;;;3.66;100
75089;BME280;63673;49.928;8.150;2024-02-23T03:20:46;970.58;;;3.64;100
75089;BME280;63673;49.928;8.150;2024-02-23T03:21:49;970.54;;;3.63;100
75089;BME280;63673;49.928;8.150;2024-02-23T03:22:55;970.57;;;3.63;100
75089;BME280;63673;49.928;8.150;2024-02-23T03:23:57;970.57;;;3.62;100
75089;BME280;63673;49.928;8.150;2024-02-23T03:24:58;970.63;;;3.59;100
75089;BME280;63673;49.928;8.150;2024-02-23T03:26:01;970.62;;;3.61;100
75089;BME280;63673;49.928;8.150;2024-02-23T03:27:04;970.62;;;3.58;100
75089;BME280;63673;49.928;8.150;2024-02-23T03:28:04;970.59;;;3.6;100
75089;BME280;63673;49.928;8.150;2024-02-23T03:29:06;970.6;;;3.59;100
75089;BME280;63673;49.928;8.150;2024-02-23T03:30:08;970.61;;;3.57;100
75089;BME280;63673;49.928;8.150;2024-02-23T03:31:09;970.57;;;3.56;100
75089;BME280;63673;49.928;8.150;2024-02-23T03:32:11;970.59;;;3.56;100
75089;BME280;63673;49.928;8.150;2024-02-23T03:33:13;970.59;;;3.56;100
75089;BME280;63673;49.928;8.150;2024-02-23T03:34:15;970.58;;;3.55;100
75089;BME280;63673;49.928;8.150;2024-02-23T03:35:16;970.58;;;3.53;100
75089;BME280;63673;49.928;8.150;2024-02-23T03:36:18;970.57;;;3.52;100
75089;BME280;63673;49.928;8.150;2024-02-23T03:37:19;970.58;;;3.53;100
75089;BME280;63673;49.928;8.150;2024-02-23T03:38:27;970.53;;;3.53;100
75089;BME280;63673;49.928;8.150;2024-02-23T03:39:28;970.57;;;3.53;100
75089;BME280;63673;49.928;8.150;2024-02-23T03:40:29;970.56;;;3.52;100
75089;BME280;63673;49.928;8.150;2024-02-23T03:41:32;970.53;;;3.53;100
75089;BME280;63673;49.928;8.150;2024-02-23T03:42:35;970.55;;;3.52;100
75089;BME280;63673;49.928;8.150;2024-02-23T03:43:39;970.52;;;3.51;100
75089;BME280;63673;49.928;8.150;2024-02-23T03:44:42;970.58;;;3.5;100
75089;BME280;63673;49.928;8.150;2024-02-23T03:45:48;970.52;;;3.5;100
75089;BME280;63673;49.928;8.150;2024-02-23T03:46:50;970.52;;;3.5;100
75089;BME280;63673;49.928;8.150;2024-02-23T03:47:53;970.53;;;3.5;100
75089;BME280;63673;49.928;8.150;2024-02-23T03:48:58;970.53;;;3.5;100
75089;BME280;63673;49.928;8.150;2024-02-23T03:50:01;970.52;;;3.49;100
75089;BME280;63673;49.928;8.150;2024-02-23T03:51:06;970.38;;;3.49;100
75089;BME280;63673;49.928;8.150;2024-02-23T03:52:10;970.48;;;3.48;100
75089;BME280;63673;49.928;8.150;2024-02-23T03:53:11;970.52;;;3.48;100
75089;BME280;63673;49.928;8.150;2024-02-23T03:54:13;970.48;;;3.48;100
75089;BME280;63673;49.928;8.150;2024-02-23T03:55:15;970.55;;;3.47;100
75089;BME280;63673;49.928;8.150;2024-02-23T03:56:21;970.53;;;3.47;100
75089;BME280;63673;49.928;8.150;2024-02-23T03:57:24;970.57;;;3.46;100
75089;BME280;63673;49.928;8.150;2024-02-23T03:58:25;970.57;;;3.46;100
75089;BME280;63673;49.928;8.150;2024-02-23T03:59:31;970.52;;;3.46;100
75089;BME280;63673;49.928;8.150;2024-02-23T04:00:33;970.55;;;3.46;100
75089;BME280;63673;49.928;8.150;2024-02-23T04:01:36;970.57;;;3.47;100
75089;BME280;63673;49.928;8.150;2024-02-23T04:02:38;970.52;;;3.47;100
75089;BME280;63673;49.928;8.150;2024-02-23T04:03:39;970.53;;;3.47;100
75089;BME280;63673;49.928;8.150;2024-02-23T04:04:41;970.59;;;3.47;100
75089;BME280;63673;49.928;8.150;2024-02-23T04:05:43;970.61;;;3.46;100
75089;BME280;63673;49.928;8.150;2024-02-23T04:06:44;970.54;;;3.47;100
75089;BME280;63673;49.928;8.150;2024-02-23T04:07:46;970.63;;;3.48;100
75089;BME280;63673;49.928;8.150;2024-02-23T04:08:48;970.64;;;3.47;100
75089;BME280;63673;49.928;8.150;2024-02-23T04:09:51;970.63;;;3.48;100
75089;BME280;63673;49.928;8.150;2024-02-23T04:10:56;970.63;;;3.48;100
75089;BME280;63673;49.928;8.150;2024-02-23T04:11:58;970.71;;;3.48;100
75089;BME280;63673;49.928;8.150;2024-02-23T04:13:01;970.79;;;3.45;100
75089;BME280;63673;49.928;8.150;2024-02-23T04:14:06;970.79;;;3.46;100
75089;BME280;63673;49.928;8.150;2024-02-23T04:15:09;970.76;;;3.46;100
75089;BME280;63673;49.928;8.150;2024-02-23T04:16:10;970.79;;;3.47;100
75089;BME280;63673;49.928;8.150;2024-02-23T04:17:16;970.88;;;3.47;100
75089;BME280;63673;49.928;8.150;2024-02-23T04:18:19;970.86;;;3.46;100
75089;BME280;63673;49.928;8.150;2024-02-23T04:19:22;970.81;;;3.45;100
75089;BME280;63673;49.928;8.150;2024-02-23T04:20:22;970.86;;;3.44;100
75089;BME280;63673;49.928;8.150;2024-02-23T04:21:24;970.79;;;3.44;100
75089;BME280;63673;49.928;8.150;2024-02-23T04:22:26;970.83;;;3.44;100
75089;BME280;63673;49.928;8.150;2024-02-23T04:23:27;970.75;;;3.42;100
75089;BME280;63673;49.928;8.150;2024-02-23T04:24:29;970.77;;;3.42;100
75089;BME280;63673;49.928;8.150;2024-02-23T04:25:31;970.75;;;3.42;100
75089;BME280;63673;49.928;8.150;2024-02-23T04:26:33;970.72;;;3.4;100
75089;BME280;63673;49.928;8.150;2024-02-23T04:27:35;970.74;;;3.39;100
75089;BME280;63673;49.928;8.150;2024-02-23T04:28:37;970.75;;;3.38;100
75089;BME280;63673;49.928;8.150;2024-02-23T04:29:37;970.76;;;3.38;100
75089;BME280;63673;49.928;8.150;2024-02-23T04:30:40;970.71;;;3.39;100
75089;BME280;63673;49.928;8.150;2024-02-23T04:31:43;970.75;;;3.4;100
75089;BME280;63673;49.928;8.150;2024-02-23T04:32:45;970.73;;;3.39;100
75089;BME280;63673;49.928;8.150;2024-02-23T04:33:45;970.71;;;3.39;100
75089;BME280;63673;49.928;8.150;2024-02-23T04:34:47;970.7;;;3.38;100
75089;BME280;63673;49.928;8.150;2024-02-23T04:35:48;970.67;;;3.36;100
75089;BME280;63673;49.928;8.150;2024-02-23T04:36:50;970.67;;;3.36;100
75089;BME280;63673;49.928;8.150;2024-02-23T04:37:52;970.64;;;3.35;100
75089;BME280;63673;49.928;8.150;2024-02-23T04:38:53;970.64;;;3.36;100
75089;BME280;63673;49.928;8.150;2024-02-23T04:39:55;970.69;;;3.34;100
75089;BME280;63673;49.928;8.150;2024-02-23T04:40:57;970.57;;;3.33;100
75089;BME280;63673;49.928;8.150;2024-02-23T04:41:59;970.58;;;3.32;100
75089;BME280;63673;49.928;8.150;2024-02-23T04:43:01;970.55;;;3.32;100
75089;BME280;63673;49.928;8.150;2024-02-23T04:44:02;970.55;;;3.32;100
75089;BME280;63673;49.928;8.150;2024-02-23T04:45:06;970.6;;;3.32;100
75089;BME280;63673;49.928;8.150;2024-02-23T04:46:06;970.6;;;3.3;100
75089;BME280;63673;49.928;8.150;2024-02-23T04:47:07;970.53;;;3.28;100
75089;BME280;63673;49.928;8.150;2024-02-23T04:48:09;970.6;;;3.27;100
75089;BME280;63673;49.928;8.150;2024-02-23T04:49:11;970.59;;;3.26;100
75089;BME280;63673;49.928;8.150;2024-02-23T04:50:13;970.62;;;3.26;100
75089;BME280;63673;49.928;8.150;2024-02-23T04:51:14;970.61;;;3.26;100
75089;BME280;63673;49.928;8.150;2024-02-23T04:52:16;970.63;;;3.26;100
75089;BME280;63673;49.928;8.150;2024-02-23T04:53:18;970.64;;;3.26;100
75089;BME280;63673;49.928;8.150;2024-02-23T04:54:19;970.65;;;3.24;100
75089;BME280;63673;49.928;8.150;2024-02-23T04:55:21;970.66;;;3.23;100
75089;BME280;63673;49.928;8.150;2024-02-23T04:56:22;970.7;;;3.23;100
75089;BME280;63673;49.928;8.150;2024-02-23T04:57:25;970.7;;;3.21;100
75089;BME280;63673;49.928;8.150;2024-02-23T04:58:26;970.73;;;3.21;100
75089;BME280;63673;49.928;8.150;2024-02-23T04:59:33;970.72;;;3.21;100
75089;BME280;63673;49.928;8.150;2024-02-23T05:00:35;970.76;;;3.19;100
75089;BME280;63673;49.928;8.150;2024-02-23T05:01:41;970.66;;;3.18;100
75089;BME280;63673;49.928;8.150;2024-02-23T05:02:43;970.59;;;3.17;100
75089;BME280;63673;49.928;8.150;2024-02-23T05:03:45;970.72;;;3.16;100
75089;BME280;63673;49.928;8.150;2024-02-23T05:04:47;970.77;;;3.15;100
75089;BME280;63673;49.928;8.150;2024-02-23T05:05:53;970.75;;;3.14;100
75089;BME280;63673;49.928;8.150;2024-02-23T05:06:56;970.72;;;3.15;100
75089;BME280;63673;49.928;8.150;2024-02-23T05:07:57;970.71;;;3.15;100
75089;BME280;63673;49.928;8.150;2024-02-23T05:09:00;970.83;;;3.15;100
75089;BME280;63673;49.928;8.150;2024-02-23T05:10:01;970.77;;;3.16;100
75089;BME280;63673;49.928;8.150;2024-02-23T05:11:03;970.81;;;3.14;100
75089;BME280;63673;49.928;8.150;2024-02-23T05:12:04;970.85;;;3.14;100
75089;BME280;63673;49.928;8.150;2024-02-23T05:13:06;970.95;;;3.13;100
75089;BME280;63673;49.928;8.150;2024-02-23T05:14:08;970.93;;;3.14;100
75089;BME280;63673;49.928;8.150;2024-02-23T05:15:09;970.91;;;3.16;100
75089;BME280;63673;49.928;8.150;2024-02-23T05:16:11;970.94;;;3.18;100
75089;BME280;63673;49.928;8.150;2024-02-23T05:17:13;970.95;;;3.18;100
75089;BME280;63673;49.928;8.150;2024-02-23T05:18:15;970.96;;;3.19;100
75089;BME280;63673;49.928;8.150;2024-02-23T05:19:16;970.92;;;3.2;100
75089;BME280;63673;49.928;8.150;2024-02-23T05:20:18;970.93;;;3.2;100
75089;BME280;63673;49.928;8.150;2024-02-23T05:21:24;970.93;;;3.21;100
75089;BME280;63673;49.928;8.150;2024-02-23T05:22:27;970.96;;;3.21;100
75089;BME280;63673;49.928;8.150;2024-02-23T05:23:28;970.91;;;3.22;100
75089;BME280;63673;49.928;8.150;2024-02-23T05:24:34;970.89;;;3.22;100
75089;BME280;63673;49.928;8.150;2024-02-23T05:25:36;970.9;;;3.22;100
75089;BME280;63673;49.928;8.150;2024-02-23T05:26:39;970.88;;;3.21;100
75089;BME280;63673;49.928;8.150;2024-02-23T05:27:40;970.91;;;3.21;100
75089;BME280;63673;49.928;8.150;2024-02-23T05:28:47;970.93;;;3.21;100
75089;BME280;63673;49.928;8.150;2024-02-23T05:29:50;970.95;;;3.22;100
75089;BME280;63673;49.928;8.150;2024-02-23T05:30:55;970.89;;;3.23;100
75089;BME280;63673;49.928;8.150;2024-02-23T05:31:58;970.89;;;3.24;100
75089;BME280;63673;49.928;8.150;2024-02-23T05:32:59;970.89;;;3.24;100
75089;BME280;63673;49.928;8.150;2024-02-23T05:34:01;970.85;;;3.25;100
75089;BME280;63673;49.928;8.150;2024-02-23T05:35:03;970.86;;;3.26;100
75089;BME280;63673;49.928;8.150;2024-02-23T05:36:05;970.88;;;3.26;100
75089;BME280;63673;49.928;8.150;2024-02-23T05:37:07;970.92;;;3.26;100
75089;BME280;63673;49.928;8.150;2024-02-23T05:38:08;970.94;;;3.26;100
75089;BME280;63673;49.928;8.150;2024-02-23T05:39:10;970.94;;;3.26;100
75089;BME280;63673;49.928;8.150;2024-02-23T05:40:17;970.92;;;3.26;100
75089;BME280;63673;49.928;8.150;2024-02-23T05:41:18;970.95;;;3.27;100
75089;BME280;63673;49.928;8.150;2024-02-23T05:42:19;970.96;;;3.27;100
75089;BME280;63673;49.928;8.150;2024-02-23T05:43:23;971;;;3.26;100
75089;BME280;63673;49.928;8.150;2024-02-23T05:44:23;970.98;;;3.26;100
75089;BME280;63673;49.928;8.150;2024-02-23T05:45:25;970.94;;;3.26;100
75089;BME280;63673;49.928;8.150;2024-02-23T05:46:27;970.98;;;3.25;100
75089;BME280;63673;49.928;8.150;2024-02-23T05:47:29;970.94;;;3.24;100